Time;durP1;ratioP1;P1;durP2;ratioP2;P2;SDS_P1;SDS_P2;PMS_P1;PMS_P2;Temp;Humidity;BMP_temperature;BMP_pressure;BME280_temperature;BME280_humidity;BME280_pressure;Samples;Min_cycle;Max_cycle;Signal;HPM_P1;HPM_P2
2022/10/29 00:01:46;;;;;;;;;;;;;;;14.92;74.49;101358.44;5069709;28;19923;-27
2022/10/29 00:04:11;;;;;;;;;;;;;;;14.90;74.26;101378.81;5067603;28;20283;-27
2022/10/29 00:06:37;;;;;;;;;;;;;;;14.88;74.48;101378.84;5063662;28;19928;-28
2022/10/29 00:09:02;;;;;;;;;;;;;;;14.86;74.29;101387.75;5068336;28;19923;-27
2022/10/29 00:11:28;;;;;;;;;;;;;;;14.84;74.23;101376.28;5064208;28;19916;-26
2022/10/29 00:13:54;;;;;;;;;;;;;;;14.82;74.25;101375.41;5056449;28;20011;-27
2022/10/29 00:16:20;;;;;;;;;;;;;;;14.79;74.28;101372.81;5077024;28;20373;-27
2022/10/29 00:18:46;;;;;;;;;;;;;;;14.77;74.21;101375.47;5070205;28;20007;-27
2022/10/29 00:21:12;;;;;;;;;;;;;;;14.74;74.23;101383.47;5062194;28;20007;-28
2022/10/29 00:23:38;;;;;;;;;;;;;;;14.72;74.14;101383.50;5062945;28;19927;-27
2022/10/29 00:26:03;;;;;;;;;;;;;;;14.70;74.20;101385.28;5067684;28;19920;-27
2022/10/29 00:28:28;;;;;;;;;;;;;;;14.67;74.14;101385.31;5069165;28;20394;-27
2022/10/29 00:30:54;;;;;;;;;;;;;;;14.65;74.21;101403.06;5067495;28;19920;-27
2022/10/29 00:33:19;;;;;;;;;;;;;;;14.61;74.26;101399.56;5066482;28;19939;-27
2022/10/29 00:36:00;;;;;;;;;;;;;;;14.59;74.39;101403.16;5061185;28;19979;-27
2022/10/29 00:38:26;;;;;;;;;;;;;;;14.57;74.44;101411.13;5062587;28;19921;-27
2022/10/29 00:40:52;;;;;;;;;;;;;;;14.55;74.58;101406.75;5078954;28;20408;-27
2022/10/29 00:43:18;;;;;;;;;;;;;;;14.52;74.48;101413.00;5065113;28;19924;-27
2022/10/29 00:45:44;;;;;;;;;;;;;;;14.49;74.60;101413.03;5068129;28;19917;-27
2022/10/29 00:48:10;;;;;;;;;;;;;;;14.48;74.62;101408.63;5064942;28;19917;-27
2022/10/29 00:50:35;;;;;;;;;;;;;;;14.44;74.58;101405.13;5066513;28;19916;-27
2022/10/29 00:53:01;;;;;;;;;;;;;;;14.42;74.79;101398.97;5064465;28;19927;-28
2022/10/29 00:55:26;;;;;;;;;;;;;;;14.40;74.57;101392.78;5059131;28;19966;-27
2022/10/29 00:57:51;;;;;;;;;;;;;;;14.39;74.58;101401.66;5058783;28;19964;-28
2022/10/29 01:00:17;;;;;;;;;;;;;;;14.37;74.42;101398.13;5066122;28;19998;-27
2022/10/29 01:02:42;;;;;;;;;;;;;;;14.34;74.48;101398.19;5058053;28;19921;-27
2022/10/29 01:05:07;;;;;;;;;;;;;;;14.33;74.37;101407.03;5061585;28;20289;-27
2022/10/29 01:07:32;;;;;;;;;;;;;;;14.30;74.34;101407.97;5064855;28;20336;-27
2022/10/29 01:09:58;;;;;;;;;;;;;;;14.28;74.60;101406.22;5066133;28;20313;-28
2022/10/29 01:12:23;;;;;;;;;;;;;;;14.25;74.50;101401.84;5054696;28;20304;-28
2022/10/29 01:15:09;;;;;;;;;;;;;;;14.23;74.58;101401.84;5067118;28;20304;-28
2022/10/29 01:17:39;;;;;;;;;;;;;;;14.19;74.80;101400.16;5062418;28;19964;-27
2022/10/29 01:20:22;;;;;;;;;;;;;;;14.16;74.85;101392.22;5062870;28;20404;-27
2022/10/29 01:23:06;;;;;;;;;;;;;;;14.16;74.74;101392.22;5054286;28;19921;-27
2022/10/29 01:25:50;;;;;;;;;;;;;;;14.11;74.61;101386.97;5065460;28;20391;-27
2022/10/29 01:28:18;;;;;;;;;;;;;;;14.10;74.69;101387.88;5058135;28;19967;-27
2022/10/29 01:30:59;;;;;;;;;;;;;;;14.08;74.66;101394.09;5071057;28;19916;-27
2022/10/29 01:33:26;;;;;;;;;;;;;;;14.05;75.08;101391.47;5055742;28;20377;-28
2022/10/29 01:35:55;;;;;;;;;;;;;;;14.03;75.02;101398.56;5061639;28;19964;-27
2022/10/29 01:38:23;;;;;;;;;;;;;;;14.02;74.94;101396.81;5067026;28;20341;-27
2022/10/29 01:41:17;;;;;;;;;;;;;;;13.99;74.99;101397.72;5059399;28;19917;-27
2022/10/29 01:43:49;;;;;;;;;;;;;;;13.98;74.84;101396.84;5051215;28;20393;-27
2022/10/29 01:46:22;;;;;;;;;;;;;;;13.96;74.88;101389.81;5071966;28;19912;-27
2022/10/29 01:48:49;;;;;;;;;;;;;;;13.94;74.97;101395.13;5069913;28;19917;-28
2022/10/29 01:51:19;;;;;;;;;;;;;;;13.93;74.88;101401.34;5060869;28;19985;-27
2022/10/29 01:53:44;;;;;;;;;;;;;;;13.91;75.03;101394.28;5063297;28;19974;-28
2022/10/29 01:56:09;;;;;;;;;;;;;;;13.90;75.18;101393.41;5059935;28;19917;-27
2022/10/29 01:58:35;;;;;;;;;;;;;;;13.89;75.05;101396.06;5059239;28;19916;-27
2022/10/29 02:01:04;;;;;;;;;;;;;;;13.87;75.24;101398.72;5063441;28;19917;-28
2022/10/29 02:03:29;;;;;;;;;;;;;;;13.86;75.25;101394.34;5064252;28;20398;-27
2022/10/29 02:06:06;;;;;;;;;;;;;;;13.84;75.13;101399.66;5063578;28;19954;-28
2022/10/29 02:08:40;;;;;;;;;;;;;;;13.84;75.06;101401.44;5057376;28;19963;-27
2022/10/29 02:11:16;;;;;;;;;;;;;;;13.81;74.98;101414.72;5066799;28;20374;-27
2022/10/29 02:14:05;;;;;;;;;;;;;;;13.81;75.25;101404.13;5071922;28;19923;-28
2022/10/29 02:16:30;;;;;;;;;;;;;;;13.79;75.09;101411.19;5062585;28;19916;-27
2022/10/29 02:18:56;;;;;;;;;;;;;;;13.77;75.33;101421.81;5062610;28;19916;-28
2022/10/29 02:21:22;;;;;;;;;;;;;;;13.75;75.15;101420.09;5058684;28;19923;-27
2022/10/29 02:23:47;;;;;;;;;;;;;;;13.73;75.17;101421.00;5062672;28;19920;-28
2022/10/29 02:26:12;;;;;;;;;;;;;;;13.71;75.20;101417.47;5060873;28;20278;-28
2022/10/29 02:28:38;;;;;;;;;;;;;;;13.71;75.22;101417.47;5064864;28;19927;-27
2022/10/29 02:31:03;;;;;;;;;;;;;;;13.69;75.22;101419.28;5056050;28;19928;-28
2022/10/29 02:33:29;;;;;;;;;;;;;;;13.68;75.30;101411.31;5066438;28;19962;-28
2022/10/29 02:35:54;;;;;;;;;;;;;;;13.67;75.16;101402.50;5060086;28;20289;-28
2022/10/29 02:38:19;;;;;;;;;;;;;;;13.65;75.01;101399.00;5063171;28;19924;-28
2022/10/29 02:40:44;;;;;;;;;;;;;;;13.63;75.33;101406.06;5059083;28;19961;-28
2022/10/29 02:43:09;;;;;;;;;;;;;;;13.63;75.28;101406.06;5061077;28;19921;-27
2022/10/29 02:45:35;;;;;;;;;;;;;;;13.60;75.39;101417.59;5055183;28;19951;-27
2022/10/29 02:48:00;;;;;;;;;;;;;;;13.60;75.21;101417.59;5063364;28;19917;-28
2022/10/29 02:50:25;;;;;;;;;;;;;;;13.60;75.30;101411.38;5062610;28;19917;-28
2022/10/29 02:52:50;;;;;;;;;;;;;;;13.58;75.22;101418.50;5059544;28;19924;-28
2022/10/29 02:55:16;;;;;;;;;;;;;;;13.57;75.23;101408.78;5063594;28;19955;-28
2022/10/29 02:57:44;;;;;;;;;;;;;;;13.55;75.33;101410.56;5064697;28;19956;-28
2022/10/29 03:00:10;;;;;;;;;;;;;;;13.53;75.33;101404.38;5059460;28;19939;-28
2022/10/29 03:02:35;;;;;;;;;;;;;;;13.51;75.17;101407.09;5062292;28;19921;-28
2022/10/29 03:05:00;;;;;;;;;;;;;;;13.50;75.02;101399.16;5060095;28;20358;-28
2022/10/29 03:07:25;;;;;;;;;;;;;;;13.49;75.09;101408.84;5060450;28;20004;-27
2022/10/29 03:09:51;;;;;;;;;;;;;;;13.47;75.16;101408.84;5070558;28;19917;-28
2022/10/29 03:12:16;;;;;;;;;;;;;;;13.45;75.19;101408.00;5068776;28;19944;-28
2022/10/29 03:14:41;;;;;;;;;;;;;;;13.45;75.06;101409.75;5059046;28;19958;-28
2022/10/29 03:17:06;;;;;;;;;;;;;;;13.44;75.17;101416.81;5061138;28;19967;-28
2022/10/29 03:19:31;;;;;;;;;;;;;;;13.42;75.06;101413.31;5063614;28;19948;-27
2022/10/29 03:21:57;;;;;;;;;;;;;;;13.41;75.07;101416.81;5064028;28;19920;-28
2022/10/29 03:24:22;;;;;;;;;;;;;;;13.40;74.99;101428.34;5071404;28;19920;-27
2022/10/29 03:26:47;;;;;;;;;;;;;;;13.38;74.90;101422.19;5063406;28;19920;-28
2022/10/29 03:29:12;;;;;;;;;;;;;;;13.38;75.04;101405.41;5073119;28;19923;-28
2022/10/29 03:31:38;;;;;;;;;;;;;;;13.34;74.98;101409.84;5062593;28;19920;-28
2022/10/29 03:34:03;;;;;;;;;;;;;;;13.33;75.13;101424.88;5060722;28;19921;-27
2022/10/29 03:36:28;;;;;;;;;;;;;;;13.33;75.02;101421.31;5064585;28;19916;-28
2022/10/29 03:38:53;;;;;;;;;;;;;;;13.31;75.13;101416.03;5068809;28;19920;-28
2022/10/29 03:41:18;;;;;;;;;;;;;;;13.31;75.07;101423.13;5068947;28;19938;-27
2022/10/29 03:43:44;;;;;;;;;;;;;;;13.29;75.06;101424.91;5056394;28;19928;-28
2022/10/29 03:46:09;;;;;;;;;;;;;;;13.28;75.07;101421.38;5060137;28;20022;-27
2022/10/29 03:48:34;;;;;;;;;;;;;;;13.27;75.00;101421.41;5059251;28;20019;-27
2022/10/29 03:51:00;;;;;;;;;;;;;;;13.27;75.19;101424.03;5060545;28;20011;-28
2022/10/29 03:53:26;;;;;;;;;;;;;;;13.24;75.08;101421.41;5064641;28;20389;-27
2022/10/29 03:55:51;;;;;;;;;;;;;;;13.23;74.99;101422.31;5064521;28;20143;-27
2022/10/29 03:58:16;;;;;;;;;;;;;;;13.20;75.09;101426.72;5066516;28;19932;-28
2022/10/29 04:00:42;;;;;;;;;;;;;;;13.20;75.15;101421.44;5055789;28;19916;-28
2022/10/29 04:03:07;;;;;;;;;;;;;;;13.19;75.10;101424.97;5073328;28;19991;-27
2022/10/29 04:05:32;;;;;;;;;;;;;;;13.17;75.28;101424.09;5058491;28;19916;-28
2022/10/29 04:07:57;;;;;;;;;;;;;;;13.16;75.21;101426.75;5064005;28;20177;-28
2022/10/29 04:10:24;;;;;;;;;;;;;;;13.15;75.10;101428.56;5061529;28;20112;-27
2022/10/29 04:12:50;;;;;;;;;;;;;;;13.12;75.00;101436.50;5061745;28;20397;-28
2022/10/29 04:15:15;;;;;;;;;;;;;;;13.12;75.15;101436.50;5057523;28;19917;-28
2022/10/29 04:17:40;;;;;;;;;;;;;;;13.10;75.08;101432.97;5071358;28;19969;-27
2022/10/29 04:20:05;;;;;;;;;;;;;;;13.10;75.07;101430.34;5056541;28;19917;-27
2022/10/29 04:22:31;;;;;;;;;;;;;;;13.06;75.07;101433.91;5066074;28;19923;-28
2022/10/29 04:24:56;;;;;;;;;;;;;;;13.06;75.03;101431.25;5073165;28;19923;-28
2022/10/29 04:27:21;;;;;;;;;;;;;;;13.06;75.04;101425.94;5070499;28;19920;-28
2022/10/29 04:29:46;;;;;;;;;;;;;;;13.03;75.15;101439.22;5067469;28;19923;-27
2022/10/29 04:32:12;;;;;;;;;;;;;;;13.03;75.04;101441.84;5063983;28;19928;-28
2022/10/29 04:34:37;;;;;;;;;;;;;;;13.02;75.15;101456.00;5062206;28;19971;-27
2022/10/29 04:37:02;;;;;;;;;;;;;;;13.00;75.17;101444.56;5070204;28;19963;-28
2022/10/29 04:39:27;;;;;;;;;;;;;;;12.98;75.13;101443.66;5071210;28;19944;-28
2022/10/29 04:41:52;;;;;;;;;;;;;;;12.98;75.06;101446.31;5062764;28;20374;-28
2022/10/29 04:44:18;;;;;;;;;;;;;;;12.95;75.25;101444.56;5067819;28;20019;-28
2022/10/29 04:46:44;;;;;;;;;;;;;;;12.94;75.18;101456.06;5055103;28;20155;-28
2022/10/29 04:49:09;;;;;;;;;;;;;;;12.93;75.10;101456.94;5058881;28;19916;-28
2022/10/29 04:51:34;;;;;;;;;;;;;;;12.92;75.20;101453.44;5084698;28;19999;-28
2022/10/29 04:53:59;;;;;;;;;;;;;;;12.90;75.15;101455.19;5061141;28;19939;-27
2022/10/29 04:56:24;;;;;;;;;;;;;;;12.90;75.32;101457.84;5064826;28;19917;-27
2022/10/29 04:58:51;;;;;;;;;;;;;;;12.88;75.28;101450.78;5067893;28;19924;-28
2022/10/29 05:01:16;;;;;;;;;;;;;;;12.87;75.16;101449.03;5068471;28;20167;-28
2022/10/29 05:03:41;;;;;;;;;;;;;;;12.85;75.24;101451.69;5060928;28;20017;-27
2022/10/29 05:06:07;;;;;;;;;;;;;;;12.84;75.12;101457.91;5063842;28;19920;-28
2022/10/29 05:08:32;;;;;;;;;;;;;;;12.83;75.31;101448.16;5060052;28;20065;-27
2022/10/29 05:11:00;;;;;;;;;;;;;;;12.80;75.34;101445.53;5063672;28;19960;-28
2022/10/29 05:13:25;;;;;;;;;;;;;;;12.80;75.07;101456.13;5066094;28;20449;-27
2022/10/29 05:15:50;;;;;;;;;;;;;;;12.79;74.96;101454.38;5059769;28;19920;-28
2022/10/29 05:18:16;;;;;;;;;;;;;;;12.77;75.27;101450.88;5067820;28;20296;-28
2022/10/29 05:20:41;;;;;;;;;;;;;;;12.75;75.07;101452.63;5057821;28;19928;-28
2022/10/29 05:23:06;;;;;;;;;;;;;;;12.74;75.12;101450.88;5061981;28;19928;-27
2022/10/29 05:25:34;;;;;;;;;;;;;;;12.73;74.90;101451.78;5059738;28;21410;-28
2022/10/29 05:27:59;;;;;;;;;;;;;;;12.71;74.87;101446.50;5067267;28;20005;-28
2022/10/29 05:30:24;;;;;;;;;;;;;;;12.68;74.89;101442.06;5059553;28;19950;-28
2022/10/29 05:32:50;;;;;;;;;;;;;;;12.67;75.08;101442.97;5066255;28;19916;-27
2022/10/29 05:35:15;;;;;;;;;;;;;;;12.67;75.02;101440.31;5069932;28;19982;-28
2022/10/29 05:37:40;;;;;;;;;;;;;;;12.66;74.84;101442.97;5073330;28;19912;-28
2022/10/29 05:40:06;;;;;;;;;;;;;;;12.64;74.93;101439.47;5060247;28;19924;-28
2022/10/29 05:42:31;;;;;;;;;;;;;;;12.62;75.11;101439.47;5065257;28;19963;-28
2022/10/29 05:44:56;;;;;;;;;;;;;;;12.61;74.85;101435.09;5065041;28;20274;-28
2022/10/29 05:47:21;;;;;;;;;;;;;;;12.60;74.97;101435.94;5061293;28;20368;-27
2022/10/29 05:49:46;;;;;;;;;;;;;;;12.58;74.93;101443.03;5065372;28;19916;-28
2022/10/29 05:52:12;;;;;;;;;;;;;;;12.57;74.81;101438.59;5060726;28;19920;-28
2022/10/29 05:54:37;;;;;;;;;;;;;;;12.55;74.71;101437.75;5059381;28;19916;-27
2022/10/29 05:57:02;;;;;;;;;;;;;;;12.55;74.97;101446.56;5066403;28;19966;-28
2022/10/29 05:59:27;;;;;;;;;;;;;;;12.54;74.89;101438.66;5062608;28;19920;-28
2022/10/29 06:01:53;;;;;;;;;;;;;;;12.52;74.98;101436.00;5059723;28;20285;-27
2022/10/29 06:04:18;;;;;;;;;;;;;;;12.50;75.09;101432.47;5062976;28;20304;-27
2022/10/29 06:06:43;;;;;;;;;;;;;;;12.49;75.12;101436.00;5065305;28;19987;-28
2022/10/29 06:09:08;;;;;;;;;;;;;;;12.49;75.19;101438.66;5058874;28;19986;-27
2022/10/29 06:11:37;;;;;;;;;;;;;;;12.48;75.14;101438.66;5061497;28;19920;-28
2022/10/29 06:14:02;;;;;;;;;;;;;;;12.48;74.94;101443.94;5056646;28;19959;-27
2022/10/29 06:16:27;;;;;;;;;;;;;;;12.45;75.20;101439.56;5061137;28;19959;-27
2022/10/29 06:18:52;;;;;;;;;;;;;;;12.45;75.10;101444.84;5064034;28;19986;-27
2022/10/29 06:21:17;;;;;;;;;;;;;;;12.44;75.37;101449.25;5061083;28;19916;-28
2022/10/29 06:23:43;;;;;;;;;;;;;;;12.43;75.49;101444.84;5063385;28;19944;-28
2022/10/29 06:26:08;;;;;;;;;;;;;;;12.42;75.67;101448.41;5082636;28;19928;-27
2022/10/29 06:28:33;;;;;;;;;;;;;;;12.43;75.63;101455.44;5054964;28;19924;-27
2022/10/29 06:30:58;;;;;;;;;;;;;;;12.42;75.76;101460.72;5056990;28;20373;-27
2022/10/29 06:33:24;;;;;;;;;;;;;;;12.40;75.59;101468.66;5061996;28;19943;-28
2022/10/29 06:35:49;;;;;;;;;;;;;;;12.40;75.56;101463.38;5064475;28;19970;-28
2022/10/29 06:38:14;;;;;;;;;;;;;;;12.41;75.72;101475.72;5060535;28;20452;-28
2022/10/29 06:40:40;;;;;;;;;;;;;;;12.41;75.71;101481.00;5066785;28;20351;-28
2022/10/29 06:43:07;;;;;;;;;;;;;;;12.40;75.61;101481.91;5065667;28;20296;-28
2022/10/29 06:45:33;;;;;;;;;;;;;;;12.40;75.79;101483.66;5051633;28;19920;-28
2022/10/29 06:47:58;;;;;;;;;;;;;;;12.39;75.74;101481.91;5064717;28;19935;-27
2022/10/29 06:50:23;;;;;;;;;;;;;;;12.39;75.69;101477.50;5055115;28;19990;-27
2022/10/29 06:52:55;;;;;;;;;;;;;;;12.39;75.73;101482.78;5058466;28;19917;-28
2022/10/29 06:55:20;;;;;;;;;;;;;;;12.39;75.84;101482.78;5058808;28;20181;-28
2022/10/29 06:57:46;;;;;;;;;;;;;;;12.38;76.15;101470.47;5059913;28;19959;-28
2022/10/29 07:00:11;;;;;;;;;;;;;;;12.38;76.05;101481.03;5058716;28;19956;-27
2022/10/29 07:02:36;;;;;;;;;;;;;;;12.37;76.39;101484.56;5057778;28;19918;-28
2022/10/29 07:05:02;;;;;;;;;;;;;;;12.38;76.07;101474.88;5060137;28;19920;-28
2022/10/29 07:07:27;;;;;;;;;;;;;;;12.39;76.28;101482.78;5057891;28;19925;-27
2022/10/29 07:09:52;;;;;;;;;;;;;;;12.37;76.53;101479.25;5052719;28;19960;-28
2022/10/29 07:12:18;;;;;;;;;;;;;;;12.37;76.74;101467.81;5060422;28;19920;-28
2022/10/29 07:14:43;;;;;;;;;;;;;;;12.39;76.59;101477.50;5066704;28;19916;-27
2022/10/29 07:17:08;;;;;;;;;;;;;;;12.39;76.76;101471.31;5058636;28;19917;-28
2022/10/29 07:19:34;;;;;;;;;;;;;;;12.39;76.91;101472.22;5064175;28;20409;-27
2022/10/29 07:21:59;;;;;;;;;;;;;;;12.41;76.80;101469.56;5062161;28;20508;-27
2022/10/29 07:24:24;;;;;;;;;;;;;;;12.41;76.84;101465.13;5064550;28;20405;-27
2022/10/29 07:26:50;;;;;;;;;;;;;;;12.44;77.03;101472.22;5056601;28;20377;-28
2022/10/29 07:29:15;;;;;;;;;;;;;;;12.43;76.86;101467.78;5059917;28;20416;-27
2022/10/29 07:31:40;;;;;;;;;;;;;;;12.43;76.96;101468.66;5064624;28;19928;-27
2022/10/29 07:34:06;;;;;;;;;;;;;;;12.44;76.67;101466.91;5064449;28;19923;-27
2022/10/29 07:36:31;;;;;;;;;;;;;;;12.45;76.72;101461.59;5064695;28;20294;-28
2022/10/29 07:38:56;;;;;;;;;;;;;;;12.48;76.54;101463.38;5066938;28;19916;-28
2022/10/29 07:41:22;;;;;;;;;;;;;;;12.50;76.52;101464.22;5059420;28;19917;-27
2022/10/29 07:43:47;;;;;;;;;;;;;;;12.51;76.66;101459.81;5065336;28;19921;-27
2022/10/29 07:46:13;;;;;;;;;;;;;;;12.53;76.45;101450.09;5062044;28;19978;-27
2022/10/29 07:48:38;;;;;;;;;;;;;;;12.55;76.52;101450.97;5055737;28;19920;-27
2022/10/29 07:51:04;;;;;;;;;;;;;;;12.56;76.57;101442.13;5057312;28;19921;-27
2022/10/29 07:53:32;;;;;;;;;;;;;;;12.57;76.66;101451.84;5059492;28;19920;-28
2022/10/29 07:55:57;;;;;;;;;;;;;;;12.60;76.66;101449.19;5064009;28;19917;-28
2022/10/29 07:58:23;;;;;;;;;;;;;;;12.61;76.79;101447.41;5058502;28;19962;-27
2022/10/29 08:00:48;;;;;;;;;;;;;;;12.64;76.74;101450.91;5057695;28;19999;-28
2022/10/29 08:03:13;;;;;;;;;;;;;;;12.66;76.68;101446.50;5055943;28;19931;-28
2022/10/29 08:05:38;;;;;;;;;;;;;;;12.68;76.94;101447.38;5055079;28;19960;-27
2022/10/29 08:08:04;;;;;;;;;;;;;;;12.70;76.79;101448.25;5058025;28;19991;-28
2022/10/29 08:10:30;;;;;;;;;;;;;;;12.74;76.64;101457.03;5062115;28;19931;-28
2022/10/29 08:12:56;;;;;;;;;;;;;;;12.76;76.56;101449.97;5058606;28;20082;-28
2022/10/29 08:15:22;;;;;;;;;;;;;;;12.77;76.61;101440.28;5063740;28;20293;-28
2022/10/29 08:17:47;;;;;;;;;;;;;;;12.79;76.73;101438.50;5064153;28;19931;-28
2022/10/29 08:20:13;;;;;;;;;;;;;;;12.83;76.59;101441.13;5059010;28;19916;-28
2022/10/29 08:22:38;;;;;;;;;;;;;;;12.84;76.75;101436.72;5063540;28;20277;-28
2022/10/29 08:25:03;;;;;;;;;;;;;;;12.87;76.87;101426.09;5064632;28;19977;-28
2022/10/29 08:27:29;;;;;;;;;;;;;;;12.89;76.59;101429.63;5060489;28;20008;-28
2022/10/29 08:29:54;;;;;;;;;;;;;;;12.91;76.66;101433.09;5057946;28;20023;-28
2022/10/29 08:32:19;;;;;;;;;;;;;;;12.95;76.34;101423.41;5064214;28;19916;-28
2022/10/29 08:34:45;;;;;;;;;;;;;;;12.99;76.75;101437.47;5058578;28;19924;-28
2022/10/29 08:37:10;;;;;;;;;;;;;;;13.04;76.55;101454.22;5064326;28;19916;-28
2022/10/29 08:39:35;;;;;;;;;;;;;;;13.07;76.78;101448.88;5066745;28;20045;-27
2022/10/29 08:42:13;;;;;;;;;;;;;;;13.10;76.67;101451.53;5065666;28;20288;-27
2022/10/29 08:44:41;;;;;;;;;;;;;;;13.15;76.72;101449.75;5059432;28;20015;-28
2022/10/29 08:47:13;;;;;;;;;;;;;;;13.18;76.74;101443.53;5058752;28;20019;-28
2022/10/29 08:49:40;;;;;;;;;;;;;;;13.24;76.60;101437.31;5063106;28;20396;-28
2022/10/29 08:52:32;;;;;;;;;;;;;;;13.27;76.82;101435.50;5066088;28;19916;-28
2022/10/29 08:55:16;;;;;;;;;;;;;;;13.32;76.83;101440.78;5057506;28;19948;-28
2022/10/29 08:57:59;;;;;;;;;;;;;;;13.36;76.82;101429.25;5064678;28;19924;-27
2022/10/29 09:00:26;;;;;;;;;;;;;;;13.40;76.92;101441.56;5057604;28;20602;-28
2022/10/29 09:02:55;;;;;;;;;;;;;;;13.45;77.05;101434.50;5060629;28;20474;-28
2022/10/29 09:05:22;;;;;;;;;;;;;;;13.50;76.98;101430.94;5061790;28;20555;-28
2022/10/29 09:08:23;;;;;;;;;;;;;;;13.54;77.09;101436.19;5061749;28;19943;-27
2022/10/29 09:10:55;;;;;;;;;;;;;;;13.62;77.19;101446.72;5054731;28;20537;-28
2022/10/29 09:13:23;;;;;;;;;;;;;;;13.68;77.30;101449.34;5057130;28;19939;-28
2022/10/29 09:16:07;;;;;;;;;;;;;;;13.75;77.72;101442.19;5064568;28;19916;-27
2022/10/29 09:18:47;;;;;;;;;;;;;;;13.83;77.71;101450.03;5063952;28;19917;-28
2022/10/29 09:21:33;;;;;;;;;;;;;;;13.90;77.77;101450.88;5068576;28;20003;-28
2022/10/29 09:24:12;;;;;;;;;;;;;;;13.96;77.90;101448.16;5061867;28;19923;-27
2022/10/29 09:26:56;;;;;;;;;;;;;;;14.02;77.85;101447.19;5052394;28;19924;-27
2022/10/29 09:29:43;;;;;;;;;;;;;;;14.07;78.07;101438.28;5053114;28;19913;-28
2022/10/29 09:32:09;;;;;;;;;;;;;;;14.15;78.00;101439.97;5053457;28;19945;-27
2022/10/29 09:34:40;;;;;;;;;;;;;;;14.20;77.97;101440.78;5055905;28;19987;-27
2022/10/29 09:37:31;;;;;;;;;;;;;;;14.27;77.88;101446.94;5071962;28;20339;-28
2022/10/29 09:40:12;;;;;;;;;;;;;;;14.34;77.83;101452.13;5064140;28;20511;-27
2022/10/29 09:42:38;;;;;;;;;;;;;;;14.41;77.79;101452.06;5071668;28;20296;-28
2022/10/29 09:45:08;;;;;;;;;;;;;;;14.45;77.75;101462.63;5063140;28;19917;-28
2022/10/29 09:47:36;;;;;;;;;;;;;;;14.52;77.98;101465.19;5053043;28;20015;-27
2022/10/29 09:50:20;;;;;;;;;;;;;;;14.57;77.83;101460.72;5052706;28;19916;-28
2022/10/29 09:52:45;;;;;;;;;;;;;;;14.62;78.11;101472.13;5051522;28;19923;-27
2022/10/29 09:55:22;;;;;;;;;;;;;;;14.67;78.08;101470.28;5060188;28;20288;-27
2022/10/29 09:57:48;;;;;;;;;;;;;;;14.73;78.08;101464.91;5058338;28;19967;-27
2022/10/29 10:00:40;;;;;;;;;;;;;;;14.79;77.83;101458.66;5051392;28;19913;-27
2022/10/29 10:03:09;;;;;;;;;;;;;;;14.84;78.00;101440.03;5070104;28;19972;-27
2022/10/29 10:05:35;;;;;;;;;;;;;;;14.90;77.99;101439.91;5072857;28;19923;-27
2022/10/29 10:08:05;;;;;;;;;;;;;;;14.94;77.86;101433.66;5070510;28;19916;-28
2022/10/29 10:10:30;;;;;;;;;;;;;;;14.99;77.86;101434.47;5072321;28;20370;-28
2022/10/29 10:12:56;;;;;;;;;;;;;;;15.04;77.76;101425.53;5072588;28;19916;-27
2022/10/29 10:15:23;;;;;;;;;;;;;;;15.08;77.81;101421.94;5071159;28;19912;-28
2022/10/29 10:17:58;;;;;;;;;;;;;;;15.14;77.96;101421.84;5071131;28;19958;-27
2022/10/29 10:20:26;;;;;;;;;;;;;;;15.20;77.88;101426.19;5065285;28;19917;-27
2022/10/29 10:22:51;;;;;;;;;;;;;;;15.25;77.88;101409.22;5052574;28;19967;-27
2022/10/29 10:25:35;;;;;;;;;;;;;;;15.30;78.01;101414.47;5067637;28;19920;-27
2022/10/29 10:28:23;;;;;;;;;;;;;;;15.36;78.09;101410.84;5070479;28;20297;-28
2022/10/29 10:31:07;;;;;;;;;;;;;;;15.42;78.07;101409.84;5048915;28;20112;-28
2022/10/29 10:33:33;;;;;;;;;;;;;;;15.46;78.07;101407.13;5066863;28;19916;-29
2022/10/29 10:36:05;;;;;;;;;;;;;;;15.51;78.13;101404.38;5072238;28;19919;-27
2022/10/29 10:38:57;;;;;;;;;;;;;;;15.57;78.17;101414.03;5072248;28;19912;-28
2022/10/29 10:41:26;;;;;;;;;;;;;;;15.61;78.04;101416.59;5055745;28;19979;-28
2022/10/29 10:43:52;;;;;;;;;;;;;;;15.66;78.14;101413.84;5057606;28;19921;-28
2022/10/29 10:46:28;;;;;;;;;;;;;;;15.70;78.34;101407.56;5070633;28;20001;-27
2022/10/29 10:49:16;;;;;;;;;;;;;;;15.75;78.30;101400.41;5072607;28;20402;-28
2022/10/29 10:51:42;;;;;;;;;;;;;;;15.78;78.25;101381.69;5064534;28;19917;-28
2022/10/29 10:54:43;;;;;;;;;;;;;;;15.86;78.29;101388.66;5055860;28;20007;-27
2022/10/29 10:57:09;;;;;;;;;;;;;;;15.90;78.47;101396.56;5069258;28;19966;-28
2022/10/29 10:59:54;;;;;;;;;;;;;;;15.95;78.56;101380.53;5071194;28;20007;-28
2022/10/29 11:02:19;;;;;;;;;;;;;;;16.00;78.49;101391.94;5050257;28;19921;-28
2022/10/29 11:04:45;;;;;;;;;;;;;;;16.05;78.54;101390.97;5052274;28;19916;-28
2022/10/29 11:07:10;;;;;;;;;;;;;;;16.10;78.58;101386.44;5051763;28;20377;-28
2022/10/29 11:09:39;;;;;;;;;;;;;;;16.14;78.67;101393.47;5056158;28;19916;-28
2022/10/29 11:12:10;;;;;;;;;;;;;;;16.19;78.55;101385.38;5070092;28;19974;-28
2022/10/29 11:14:41;;;;;;;;;;;;;;;16.25;78.55;101390.56;5072162;28;20382;-28
2022/10/29 11:17:07;;;;;;;;;;;;;;;16.29;78.68;101385.16;5071925;28;19912;-27
2022/10/29 11:19:34;;;;;;;;;;;;;;;16.34;78.85;101384.16;5070452;28;19919;-27
2022/10/29 11:22:20;;;;;;;;;;;;;;;16.38;78.74;101385.84;5069718;28;19917;-28
2022/10/29 11:24:45;;;;;;;;;;;;;;;16.45;78.79;101386.59;5067515;28;20255;-28
2022/10/29 11:27:20;;;;;;;;;;;;;;;16.50;78.86;101374.03;5071670;28;20440;-27
2022/10/29 11:30:05;;;;;;;;;;;;;;;16.57;78.92;101369.47;5069189;28;19920;-28
2022/10/29 11:33:02;;;;;;;;;;;;;;;16.64;78.87;101360.44;5049815;28;19921;-27
2022/10/29 11:35:39;;;;;;;;;;;;;;;16.71;78.88;101362.03;5061290;28;20362;-29
2022/10/29 11:38:08;;;;;;;;;;;;;;;16.78;79.20;101358.28;5070179;28;19939;-28
2022/10/29 11:40:33;;;;;;;;;;;;;;;16.87;79.21;101346.53;5071288;28;19935;-28
2022/10/29 11:43:01;;;;;;;;;;;;;;;16.95;79.05;101350.78;5074618;28;20415;-28
2022/10/29 11:45:39;;;;;;;;;;;;;;;17.02;79.10;101344.41;5075865;28;19958;-28
2022/10/29 11:48:11;;;;;;;;;;;;;;;17.09;79.17;101331.81;5073203;28;19927;-28
2022/10/29 11:50:40;;;;;;;;;;;;;;;17.16;79.01;101325.41;5074739;28;20441;-28
2022/10/29 11:53:23;;;;;;;;;;;;;;;17.23;79.53;101324.34;5075755;28;20030;-28
2022/10/29 11:56:24;;;;;;;;;;;;;;;17.31;79.54;101318.81;5069224;28;19920;-28
2022/10/29 11:58:50;;;;;;;;;;;;;;;17.40;79.75;101320.34;5052202;28;19996;-28
2022/10/29 12:01:21;;;;;;;;;;;;;;;17.48;79.99;101315.69;5058211;28;20007;-28
2022/10/29 12:03:56;;;;;;;;;;;;;;;17.54;80.21;101304.81;5074993;28;19999;-28
2022/10/29 12:06:38;;;;;;;;;;;;;;;17.61;80.15;101302.00;5075045;28;19919;-27
2022/10/29 12:09:07;;;;;;;;;;;;;;;17.68;80.10;101299.09;5073703;28;19917;-28
2022/10/29 12:11:35;;;;;;;;;;;;;;;17.77;79.72;101299.78;5073291;28;20286;-27
2022/10/29 12:14:07;;;;;;;;;;;;;;;17.82;79.96;101297.81;5073569;28;19965;-28
2022/10/29 12:16:38;;;;;;;;;;;;;;;17.89;79.85;101293.19;5075211;28;19965;-28
2022/10/29 12:19:16;;;;;;;;;;;;;;;17.95;79.97;101293.00;5072138;28;20010;-28
2022/10/29 12:21:50;;;;;;;;;;;;;;;18.01;79.81;101281.25;5074279;28;19916;-27
2022/10/29 12:24:35;;;;;;;;;;;;;;;18.07;79.47;101281.94;5075073;28;20267;-29
2022/10/29 12:27:07;;;;;;;;;;;;;;;18.13;79.55;101280.03;5073439;28;19962;-28
2022/10/29 12:29:33;;;;;;;;;;;;;;;18.18;79.26;101284.28;5074697;28;19913;-28
2022/10/29 12:31:59;;;;;;;;;;;;;;;18.21;79.15;101281.53;5066090;28;19963;-27
2022/10/29 12:34:44;;;;;;;;;;;;;;;18.26;78.76;101288.53;5054646;28;19999;-27
2022/10/29 12:37:31;;;;;;;;;;;;;;;18.30;78.86;101283.03;5053282;28;20008;-27
2022/10/29 12:40:02;;;;;;;;;;;;;;;18.34;79.00;101279.34;5063586;28;19917;-28
2022/10/29 12:42:31;;;;;;;;;;;;;;;18.37;78.71;101266.84;5070987;28;20015;-28
2022/10/29 12:44:59;;;;;;;;;;;;;;;18.40;78.77;101261.38;5074032;28;19986;-27